sensor_id;sensor_type;location;lat;lon;timestamp;temperature;humidity
15083;DHT22;7640;53.116;6.878;2023-12-20T00:00:38;6.40;99.90
15083;DHT22;7640;53.116;6.878;2023-12-20T00:03:10;6.40;99.90
15083;DHT22;7640;53.116;6.878;2023-12-20T00:05:45;6.40;99.90
15083;DHT22;7640;53.116;6.878;2023-12-20T00:08:20;6.50;99.90
15083;DHT22;7640;53.116;6.878;2023-12-20T00:10:51;6.40;99.90
15083;DHT22;7640;53.116;6.878;2023-12-20T00:13:25;6.50;99.90
15083;DHT22;7640;53.116;6.878;2023-12-20T00:15:56;6.40;99.90
15083;DHT22;7640;53.116;6.878;2023-12-20T00:18:27;6.50;99.90
15083;DHT22;7640;53.116;6.878;2023-12-20T00:20:58;6.40;99.90
15083;DHT22;7640;53.116;6.878;2023-12-20T00:23:28;6.40;99.90
15083;DHT22;7640;53.116;6.878;2023-12-20T00:26:02;6.40;99.90
15083;DHT22;7640;53.116;6.878;2023-12-20T00:28:32;6.40;99.90
15083;DHT22;7640;53.116;6.878;2023-12-20T00:31:07;6.40;99.90
15083;DHT22;7640;53.116;6.878;2023-12-20T00:33:39;6.40;99.90
15083;DHT22;7640;53.116;6.878;2023-12-20T00:36:13;6.30;99.90
15083;DHT22;7640;53.116;6.878;2023-12-20T00:38:44;6.30;99.90
15083;DHT22;7640;53.116;6.878;2023-12-20T00:41:23;6.30;99.90
15083;DHT22;7640;53.116;6.878;2023-12-20T00:43:52;6.30;99.90
15083;DHT22;7640;53.116;6.878;2023-12-20T00:46:22;6.30;99.90
15083;DHT22;7640;53.116;6.878;2023-12-20T00:48:53;6.30;99.90
15083;DHT22;7640;53.116;6.878;2023-12-20T00:51:25;6.30;99.90
15083;DHT22;7640;53.116;6.878;2023-12-20T00:53:56;6.30;99.90
15083;DHT22;7640;53.116;6.878;2023-12-20T00:56:27;6.30;99.90
15083;DHT22;7640;53.116;6.878;2023-12-20T00:58:57;6.30;99.90
15083;DHT22;7640;53.116;6.878;2023-12-20T01:01:29;6.40;99.90
15083;DHT22;7640;53.116;6.878;2023-12-20T01:04:06;6.40;99.90
15083;DHT22;7640;53.116;6.878;2023-12-20T01:06:36;6.40;99.90
15083;DHT22;7640;53.116;6.878;2023-12-20T01:09:07;6.40;99.90
15083;DHT22;7640;53.116;6.878;2023-12-20T01:11:38;6.40;99.90
15083;DHT22;7640;53.116;6.878;2023-12-20T01:14:10;6.40;99.90
15083;DHT22;7640;53.116;6.878;2023-12-20T01:16:44;6.40;99.90
15083;DHT22;7640;53.116;6.878;2023-12-20T01:19:16;6.40;99.90
15083;DHT22;7640;53.116;6.878;2023-12-20T01:21:48;6.40;99.90
15083;DHT22;7640;53.116;6.878;2023-12-20T01:24:20;6.40;99.90
15083;DHT22;7640;53.116;6.878;2023-12-20T01:26:50;6.50;99.90
15083;DHT22;7640;53.116;6.878;2023-12-20T01:29:21;6.40;99.90
15083;DHT22;7640;53.116;6.878;2023-12-20T01:31:53;6.50;99.90
15083;DHT22;7640;53.116;6.878;2023-12-20T01:34:26;6.40;99.90
15083;DHT22;7640;53.116;6.878;2023-12-20T01:36:56;6.50;99.90
15083;DHT22;7640;53.116;6.878;2023-12-20T01:39:29;6.50;99.90
15083;DHT22;7640;53.116;6.878;2023-12-20T01:41:59;6.50;99.90
15083;DHT22;7640;53.116;6.878;2023-12-20T01:44:31;6.50;99.90
15083;DHT22;7640;53.116;6.878;2023-12-20T01:47:02;6.50;99.90
15083;DHT22;7640;53.116;6.878;2023-12-20T01:49:35;6.50;99.90
15083;DHT22;7640;53.116;6.878;2023-12-20T01:52:09;6.50;99.90
15083;DHT22;7640;53.116;6.878;2023-12-20T01:54:41;6.50;99.90
15083;DHT22;7640;53.116;6.878;2023-12-20T01:57:14;6.50;99.90
15083;DHT22;7640;53.116;6.878;2023-12-20T01:59:44;6.60;99.90
15083;DHT22;7640;53.116;6.878;2023-12-20T02:02:15;6.60;99.90
15083;DHT22;7640;53.116;6.878;2023-12-20T02:04:47;6.70;99.90
15083;DHT22;7640;53.116;6.878;2023-12-20T02:07:21;6.70;99.90
15083;DHT22;7640;53.116;6.878;2023-12-20T02:09:52;6.70;99.90
15083;DHT22;7640;53.116;6.878;2023-12-20T02:12:24;6.70;99.90
15083;DHT22;7640;53.116;6.878;2023-12-20T02:14:56;6.70;99.90
15083;DHT22;7640;53.116;6.878;2023-12-20T02:17:30;6.60;99.90
15083;DHT22;7640;53.116;6.878;2023-12-20T02:20:05;6.60;99.90
15083;DHT22;7640;53.116;6.878;2023-12-20T02:22:46;6.60;99.90
15083;DHT22;7640;53.116;6.878;2023-12-20T02:25:34;6.60;99.90
15083;DHT22;7640;53.116;6.878;2023-12-20T02:28:11;6.60;99.90
15083;DHT22;7640;53.116;6.878;2023-12-20T02:30:41;6.60;99.90
15083;DHT22;7640;53.116;6.878;2023-12-20T02:33:14;6.60;99.90
15083;DHT22;7640;53.116;6.878;2023-12-20T02:35:45;6.50;99.90
15083;DHT22;7640;53.116;6.878;2023-12-20T02:38:20;6.50;99.90
15083;DHT22;7640;53.116;6.878;2023-12-20T02:40:58;6.60;99.90
15083;DHT22;7640;53.116;6.878;2023-12-20T02:43:28;6.50;99.90
15083;DHT22;7640;53.116;6.878;2023-12-20T02:45:58;6.50;99.90
15083;DHT22;7640;53.116;6.878;2023-12-20T02:48:28;6.60;99.90
15083;DHT22;7640;53.116;6.878;2023-12-20T02:50:59;6.60;99.90
15083;DHT22;7640;53.116;6.878;2023-12-20T02:53:35;6.60;99.90
15083;DHT22;7640;53.116;6.878;2023-12-20T02:56:12;6.60;99.90
15083;DHT22;7640;53.116;6.878;2023-12-20T02:58:43;6.60;99.90
15083;DHT22;7640;53.116;6.878;2023-12-20T03:01:16;6.60;99.90
15083;DHT22;7640;53.116;6.878;2023-12-20T03:03:50;6.60;99.90
15083;DHT22;7640;53.116;6.878;2023-12-20T03:06:21;6.60;99.90
15083;DHT22;7640;53.116;6.878;2023-12-20T03:08:52;6.60;99.90
15083;DHT22;7640;53.116;6.878;2023-12-20T03:11:26;6.60;99.90
15083;DHT22;7640;53.116;6.878;2023-12-20T03:13:57;6.60;99.90
15083;DHT22;7640;53.116;6.878;2023-12-20T03:16:28;6.60;99.90
15083;DHT22;7640;53.116;6.878;2023-12-20T03:19:01;6.60;99.90
15083;DHT22;7640;53.116;6.878;2023-12-20T03:21:38;6.60;99.90
15083;DHT22;7640;53.116;6.878;2023-12-20T03:24:10;6.60;99.90
15083;DHT22;7640;53.116;6.878;2023-12-20T03:26:41;6.60;99.90
15083;DHT22;7640;53.116;6.878;2023-12-20T03:29:12;6.60;99.90
15083;DHT22;7640;53.116;6.878;2023-12-20T03:31:42;6.60;99.90
15083;DHT22;7640;53.116;6.878;2023-12-20T03:34:14;6.60;99.90
15083;DHT22;7640;53.116;6.878;2023-12-20T03:36:44;6.60;99.90
15083;DHT22;7640;53.116;6.878;2023-12-20T03:39:17;6.60;99.90
15083;DHT22;7640;53.116;6.878;2023-12-20T03:41:51;6.60;99.90
15083;DHT22;7640;53.116;6.878;2023-12-20T03:44:21;6.70;99.90
15083;DHT22;7640;53.116;6.878;2023-12-20T03:46:51;6.70;99.90
15083;DHT22;7640;53.116;6.878;2023-12-20T03:49:21;6.70;99.90
15083;DHT22;7640;53.116;6.878;2023-12-20T03:51:58;6.70;99.90
15083;DHT22;7640;53.116;6.878;2023-12-20T03:54:34;6.80;99.90
15083;DHT22;7640;53.116;6.878;2023-12-20T03:57:05;6.80;99.90
15083;DHT22;7640;53.116;6.878;2023-12-20T03:59:35;6.80;99.90
15083;DHT22;7640;53.116;6.878;2023-12-20T04:02:09;6.80;99.90
15083;DHT22;7640;53.116;6.878;2023-12-20T04:04:38;6.80;99.90
15083;DHT22;7640;53.116;6.878;2023-12-20T04:07:10;6.70;99.90
15083;DHT22;7640;53.116;6.878;2023-12-20T04:09:42;6.70;99.90
15083;DHT22;7640;53.116;6.878;2023-12-20T04:12:12;6.70;99.90
15083;DHT22;7640;53.116;6.878;2023-12-20T04:14:42;6.80;99.90
15083;DHT22;7640;53.116;6.878;2023-12-20T04:17:11;6.80;99.90
15083;DHT22;7640;53.116;6.878;2023-12-20T04:19:47;6.80;99.90
15083;DHT22;7640;53.116;6.878;2023-12-20T04:22:17;6.80;99.90
15083;DHT22;7640;53.116;6.878;2023-12-20T04:24:50;6.90;99.90
15083;DHT22;7640;53.116;6.878;2023-12-20T04:27:28;6.80;99.90
15083;DHT22;7640;53.116;6.878;2023-12-20T04:29:59;6.80;99.90
15083;DHT22;7640;53.116;6.878;2023-12-20T04:32:29;6.90;99.90
15083;DHT22;7640;53.116;6.878;2023-12-20T04:34:59;6.90;99.90
15083;DHT22;7640;53.116;6.878;2023-12-20T04:37:30;6.90;99.90
15083;DHT22;7640;53.116;6.878;2023-12-20T04:40:01;6.90;99.90
15083;DHT22;7640;53.116;6.878;2023-12-20T04:42:33;6.90;99.90
15083;DHT22;7640;53.116;6.878;2023-12-20T04:45:04;7.00;99.90
15083;DHT22;7640;53.116;6.878;2023-12-20T04:47:35;7.00;99.90
15083;DHT22;7640;53.116;6.878;2023-12-20T04:50:20;7.10;99.90
15083;DHT22;7640;53.116;6.878;2023-12-20T04:53:03;7.10;99.90
15083;DHT22;7640;53.116;6.878;2023-12-20T04:55:41;7.10;99.90
15083;DHT22;7640;53.116;6.878;2023-12-20T04:58:12;7.10;99.90
15083;DHT22;7640;53.116;6.878;2023-12-20T05:00:42;7.20;99.90
15083;DHT22;7640;53.116;6.878;2023-12-20T05:03:13;7.20;99.90
15083;DHT22;7640;53.116;6.878;2023-12-20T05:05:48;7.20;99.90
15083;DHT22;7640;53.116;6.878;2023-12-20T05:08:28;7.20;99.90
15083;DHT22;7640;53.116;6.878;2023-12-20T05:10:59;7.30;99.90
15083;DHT22;7640;53.116;6.878;2023-12-20T05:13:30;7.20;99.90
15083;DHT22;7640;53.116;6.878;2023-12-20T05:16:16;7.20;99.90
15083;DHT22;7640;53.116;6.878;2023-12-20T05:18:50;7.20;99.90
15083;DHT22;7640;53.116;6.878;2023-12-20T05:21:24;7.30;99.90
15083;DHT22;7640;53.116;6.878;2023-12-20T05:23:55;7.30;99.90
15083;DHT22;7640;53.116;6.878;2023-12-20T05:26:30;7.30;99.90
15083;DHT22;7640;53.116;6.878;2023-12-20T05:29:00;7.30;99.90
15083;DHT22;7640;53.116;6.878;2023-12-20T05:31:33;7.30;99.90
15083;DHT22;7640;53.116;6.878;2023-12-20T05:34:04;7.30;99.90
15083;DHT22;7640;53.116;6.878;2023-12-20T05:36:38;7.40;99.90
15083;DHT22;7640;53.116;6.878;2023-12-20T05:39:12;7.40;99.90
15083;DHT22;7640;53.116;6.878;2023-12-20T05:41:50;7.40;99.90
15083;DHT22;7640;53.116;6.878;2023-12-20T05:44:22;7.40;99.90
15083;DHT22;7640;53.116;6.878;2023-12-20T05:46:53;7.50;99.90
15083;DHT22;7640;53.116;6.878;2023-12-20T05:49:25;7.50;99.90
15083;DHT22;7640;53.116;6.878;2023-12-20T05:51:56;7.50;99.90
15083;DHT22;7640;53.116;6.878;2023-12-20T05:54:26;7.50;99.90
15083;DHT22;7640;53.116;6.878;2023-12-20T05:56:57;7.50;99.90
15083;DHT22;7640;53.116;6.878;2023-12-20T05:59:27;7.50;99.90
15083;DHT22;7640;53.116;6.878;2023-12-20T06:02:00;7.60;99.90
15083;DHT22;7640;53.116;6.878;2023-12-20T06:04:42;7.60;99.90
15083;DHT22;7640;53.116;6.878;2023-12-20T06:07:12;7.60;99.90
15083;DHT22;7640;53.116;6.878;2023-12-20T06:09:45;7.60;99.90
15083;DHT22;7640;53.116;6.878;2023-12-20T06:12:27;7.60;99.90
15083;DHT22;7640;53.116;6.878;2023-12-20T06:15:07;7.60;99.90
15083;DHT22;7640;53.116;6.878;2023-12-20T06:17:37;7.60;99.90
15083;DHT22;7640;53.116;6.878;2023-12-20T06:20:08;7.70;99.90
15083;DHT22;7640;53.116;6.878;2023-12-20T06:22:40;7.70;99.90
15083;DHT22;7640;53.116;6.878;2023-12-20T06:25:13;7.70;99.90
15083;DHT22;7640;53.116;6.878;2023-12-20T06:27:47;7.70;99.90
15083;DHT22;7640;53.116;6.878;2023-12-20T06:30:18;7.70;99.90
15083;DHT22;7640;53.116;6.878;2023-12-20T06:32:51;7.70;99.90
15083;DHT22;7640;53.116;6.878;2023-12-20T06:35:27;7.70;99.90
15083;DHT22;7640;53.116;6.878;2023-12-20T06:38:07;7.70;99.90
15083;DHT22;7640;53.116;6.878;2023-12-20T06:40:37;7.70;99.90
15083;DHT22;7640;53.116;6.878;2023-12-20T06:43:22;7.70;99.90
15083;DHT22;7640;53.116;6.878;2023-12-20T06:46:12;7.70;99.90
15083;DHT22;7640;53.116;6.878;2023-12-20T06:48:42;7.70;99.90
15083;DHT22;7640;53.116;6.878;2023-12-20T06:51:13;7.70;99.90
15083;DHT22;7640;53.116;6.878;2023-12-20T06:53:44;7.70;99.90
15083;DHT22;7640;53.116;6.878;2023-12-20T06:56:14;7.70;99.90
15083;DHT22;7640;53.116;6.878;2023-12-20T06:58:51;7.70;99.90
15083;DHT22;7640;53.116;6.878;2023-12-20T07:01:24;7.70;99.90
15083;DHT22;7640;53.116;6.878;2023-12-20T07:03:58;7.70;99.90
15083;DHT22;7640;53.116;6.878;2023-12-20T07:06:33;7.80;99.90
15083;DHT22;7640;53.116;6.878;2023-12-20T07:09:05;7.70;99.90
15083;DHT22;7640;53.116;6.878;2023-12-20T07:11:40;7.80;99.90
15083;DHT22;7640;53.116;6.878;2023-12-20T07:14:15;7.80;99.90
15083;DHT22;7640;53.116;6.878;2023-12-20T07:16:45;7.80;99.90
15083;DHT22;7640;53.116;6.878;2023-12-20T07:19:18;7.80;99.90
15083;DHT22;7640;53.116;6.878;2023-12-20T07:21:51;7.80;99.90
15083;DHT22;7640;53.116;6.878;2023-12-20T07:24:31;7.80;99.90
15083;DHT22;7640;53.116;6.878;2023-12-20T07:27:01;7.80;99.90
15083;DHT22;7640;53.116;6.878;2023-12-20T07:29:36;7.80;99.90
15083;DHT22;7640;53.116;6.878;2023-12-20T07:32:07;7.80;99.90
15083;DHT22;7640;53.116;6.878;2023-12-20T07:34:39;7.80;99.90
15083;DHT22;7640;53.116;6.878;2023-12-20T07:37:10;7.80;99.90
15083;DHT22;7640;53.116;6.878;2023-12-20T07:39:42;7.90;99.90
15083;DHT22;7640;53.116;6.878;2023-12-20T07:42:13;7.90;99.90
15083;DHT22;7640;53.116;6.878;2023-12-20T07:44:47;7.90;99.90
15083;DHT22;7640;53.116;6.878;2023-12-20T07:47:18;7.90;99.90
15083;DHT22;7640;53.116;6.878;2023-12-20T07:49:49;7.90;99.90
15083;DHT22;7640;53.116;6.878;2023-12-20T07:52:20;7.90;99.90
15083;DHT22;7640;53.116;6.878;2023-12-20T07:54:54;8.00;99.90
15083;DHT22;7640;53.116;6.878;2023-12-20T07:57:24;8.00;99.90
15083;DHT22;7640;53.116;6.878;2023-12-20T08:00:04;8.00;99.90
15083;DHT22;7640;53.116;6.878;2023-12-20T08:02:36;8.00;99.90
15083;DHT22;7640;53.116;6.878;2023-12-20T08:05:07;8.00;99.90
15083;DHT22;7640;53.116;6.878;2023-12-20T08:07:40;8.00;99.90
15083;DHT22;7640;53.116;6.878;2023-12-20T08:10:12;8.10;99.90
15083;DHT22;7640;53.116;6.878;2023-12-20T08:12:48;8.10;99.90
15083;DHT22;7640;53.116;6.878;2023-12-20T08:15:20;8.10;99.90
15083;DHT22;7640;53.116;6.878;2023-12-20T08:17:50;8.10;99.90
15083;DHT22;7640;53.116;6.878;2023-12-20T08:20:20;8.10;99.90
15083;DHT22;7640;53.116;6.878;2023-12-20T08:23:06;8.10;99.90
15083;DHT22;7640;53.116;6.878;2023-12-20T08:25:35;8.10;99.90
15083;DHT22;7640;53.116;6.878;2023-12-20T08:28:06;8.10;99.90
15083;DHT22;7640;53.116;6.878;2023-12-20T08:30:39;8.10;99.90
15083;DHT22;7640;53.116;6.878;2023-12-20T08:33:11;8.20;99.90
15083;DHT22;7640;53.116;6.878;2023-12-20T08:35:42;8.20;99.90
15083;DHT22;7640;53.116;6.878;2023-12-20T08:38:12;8.20;99.90
15083;DHT22;7640;53.116;6.878;2023-12-20T08:40:42;8.20;99.90
15083;DHT22;7640;53.116;6.878;2023-12-20T08:43:21;8.20;99.90
15083;DHT22;7640;53.116;6.878;2023-12-20T08:45:56;8.20;99.90
15083;DHT22;7640;53.116;6.878;2023-12-20T08:48:26;8.20;99.90
15083;DHT22;7640;53.116;6.878;2023-12-20T08:50:57;8.20;99.90
15083;DHT22;7640;53.116;6.878;2023-12-20T08:53:29;8.20;99.90
15083;DHT22;7640;53.116;6.878;2023-12-20T08:55:59;8.20;99.90
15083;DHT22;7640;53.116;6.878;2023-12-20T08:58:30;8.20;99.90
15083;DHT22;7640;53.116;6.878;2023-12-20T09:01:06;8.30;99.90
15083;DHT22;7640;53.116;6.878;2023-12-20T09:03:46;8.30;99.90
15083;DHT22;7640;53.116;6.878;2023-12-20T09:06:20;8.40;99.90
15083;DHT22;7640;53.116;6.878;2023-12-20T09:09:01;8.10;99.90
15083;DHT22;7640;53.116;6.878;2023-12-20T09:11:35;7.40;99.90
15083;DHT22;7640;53.116;6.878;2023-12-20T09:14:06;6.70;99.90
15083;DHT22;7640;53.116;6.878;2023-12-20T09:16:38;6.40;99.90
15083;DHT22;7640;53.116;6.878;2023-12-20T09:19:08;6.20;99.90
15083;DHT22;7640;53.116;6.878;2023-12-20T09:21:43;6.10;99.90
15083;DHT22;7640;53.116;6.878;2023-12-20T09:24:21;6.10;99.90
15083;DHT22;7640;53.116;6.878;2023-12-20T09:26:50;6.10;99.90
15083;DHT22;7640;53.116;6.878;2023-12-20T09:29:21;6.20;99.90
15083;DHT22;7640;53.116;6.878;2023-12-20T09:31:54;6.20;99.90
15083;DHT22;7640;53.116;6.878;2023-12-20T09:34:26;6.20;99.90
15083;DHT22;7640;53.116;6.878;2023-12-20T09:36:58;6.30;99.90
15083;DHT22;7640;53.116;6.878;2023-12-20T09:39:42;6.30;99.90
15083;DHT22;7640;53.116;6.878;2023-12-20T09:42:17;6.30;99.90
15083;DHT22;7640;53.116;6.878;2023-12-20T09:44:54;6.30;99.90
15083;DHT22;7640;53.116;6.878;2023-12-20T09:47:25;6.30;99.90
15083;DHT22;7640;53.116;6.878;2023-12-20T09:49:56;6.20;99.90
15083;DHT22;7640;53.116;6.878;2023-12-20T09:52:27;6.20;99.90
15083;DHT22;7640;53.116;6.878;2023-12-20T09:55:01;6.10;99.90
15083;DHT22;7640;53.116;6.878;2023-12-20T09:57:39;6.10;99.90
15083;DHT22;7640;53.116;6.878;2023-12-20T10:00:15;6.10;99.90
15083;DHT22;7640;53.116;6.878;2023-12-20T10:02:50;6.20;99.90
15083;DHT22;7640;53.116;6.878;2023-12-20T10:05:27;6.20;99.90
15083;DHT22;7640;53.116;6.878;2023-12-20T10:08:01;6.20;99.90
15083;DHT22;7640;53.116;6.878;2023-12-20T10:10:32;6.20;99.90
15083;DHT22;7640;53.116;6.878;2023-12-20T10:13:14;6.20;99.90
15083;DHT22;7640;53.116;6.878;2023-12-20T10:15:46;6.20;99.90
15083;DHT22;7640;53.116;6.878;2023-12-20T10:18:19;6.30;99.90
15083;DHT22;7640;53.116;6.878;2023-12-20T10:21:04;6.30;99.90
15083;DHT22;7640;53.116;6.878;2023-12-20T10:23:38;6.30;99.90
15083;DHT22;7640;53.116;6.878;2023-12-20T10:26:08;6.30;99.90
15083;DHT22;7640;53.116;6.878;2023-12-20T10:28:40;6.30;99.90
15083;DHT22;7640;53.116;6.878;2023-12-20T10:31:10;6.90;99.90
15083;DHT22;7640;53.116;6.878;2023-12-20T10:33:56;6.30;99.90
15083;DHT22;7640;53.116;6.878;2023-12-20T10:36:30;6.30;99.90
15083;DHT22;7640;53.116;6.878;2023-12-20T10:39:02;6.30;99.90
15083;DHT22;7640;53.116;6.878;2023-12-20T10:41:40;6.30;99.90
15083;DHT22;7640;53.116;6.878;2023-12-20T10:44:20;6.20;99.90
15083;DHT22;7640;53.116;6.878;2023-12-20T10:46:50;6.20;99.90
15083;DHT22;7640;53.116;6.878;2023-12-20T10:49:28;6.30;99.90
15083;DHT22;7640;53.116;6.878;2023-12-20T10:52:00;6.30;99.90
15083;DHT22;7640;53.116;6.878;2023-12-20T10:54:41;6.30;99.90
15083;DHT22;7640;53.116;6.878;2023-12-20T10:57:13;6.30;99.90
15083;DHT22;7640;53.116;6.878;2023-12-20T10:59:43;6.30;99.90
15083;DHT22;7640;53.116;6.878;2023-12-20T11:02:17;6.40;99.90
15083;DHT22;7640;53.116;6.878;2023-12-20T11:04:56;6.40;99.90
15083;DHT22;7640;53.116;6.878;2023-12-20T11:07:35;6.40;99.90
15083;DHT22;7640;53.116;6.878;2023-12-20T11:10:14;6.40;99.90
15083;DHT22;7640;53.116;6.878;2023-12-20T11:12:53;6.40;99.90
15083;DHT22;7640;53.116;6.878;2023-12-20T11:15:28;6.40;99.90
15083;DHT22;7640;53.116;6.878;2023-12-20T11:17:59;6.50;99.90
15083;DHT22;7640;53.116;6.878;2023-12-20T11:20:37;6.50;99.90
15083;DHT22;7640;53.116;6.878;2023-12-20T11:23:10;6.50;99.90
15083;DHT22;7640;53.116;6.878;2023-12-20T11:25:53;6.60;99.90
15083;DHT22;7640;53.116;6.878;2023-12-20T11:28:30;6.70;99.90
15083;DHT22;7640;53.116;6.878;2023-12-20T11:31:01;6.70;99.90
15083;DHT22;7640;53.116;6.878;2023-12-20T11:33:36;6.80;99.90
15083;DHT22;7640;53.116;6.878;2023-12-20T11:36:15;6.90;99.90
15083;DHT22;7640;53.116;6.878;2023-12-20T11:38:58;6.90;99.90
15083;DHT22;7640;53.116;6.878;2023-12-20T11:41:28;7.00;99.90
15083;DHT22;7640;53.116;6.878;2023-12-20T11:43:58;7.00;99.90
15083;DHT22;7640;53.116;6.878;2023-12-20T11:46:28;7.10;99.90
15083;DHT22;7640;53.116;6.878;2023-12-20T11:48:59;7.10;99.90
15083;DHT22;7640;53.116;6.878;2023-12-20T11:51:31;7.10;99.90
15083;DHT22;7640;53.116;6.878;2023-12-20T11:54:10;7.20;99.90
15083;DHT22;7640;53.116;6.878;2023-12-20T11:56:42;7.20;99.90
15083;DHT22;7640;53.116;6.878;2023-12-20T11:59:13;7.20;99.90
15083;DHT22;7640;53.116;6.878;2023-12-20T12:01:50;7.30;99.90
15083;DHT22;7640;53.116;6.878;2023-12-20T12:04:20;7.30;99.90
15083;DHT22;7640;53.116;6.878;2023-12-20T12:06:51;7.40;99.90
15083;DHT22;7640;53.116;6.878;2023-12-20T12:09:22;7.50;99.90
15083;DHT22;7640;53.116;6.878;2023-12-20T12:11:52;7.60;99.90
15083;DHT22;7640;53.116;6.878;2023-12-20T12:14:25;7.70;99.90
15083;DHT22;7640;53.116;6.878;2023-12-20T12:16:55;7.70;99.90
15083;DHT22;7640;53.116;6.878;2023-12-20T12:19:27;7.80;99.90
15083;DHT22;7640;53.116;6.878;2023-12-20T12:22:09;7.90;99.90
15083;DHT22;7640;53.116;6.878;2023-12-20T12:24:43;7.90;99.90
15083;DHT22;7640;53.116;6.878;2023-12-20T12:27:14;7.90;99.90
15083;DHT22;7640;53.116;6.878;2023-12-20T12:30:01;7.90;99.90
15083;DHT22;7640;53.116;6.878;2023-12-20T12:32:32;7.90;99.90
15083;DHT22;7640;53.116;6.878;2023-12-20T12:35:04;7.90;99.90
15083;DHT22;7640;53.116;6.878;2023-12-20T12:37:39;7.90;99.90
15083;DHT22;7640;53.116;6.878;2023-12-20T12:40:11;7.90;99.90
15083;DHT22;7640;53.116;6.878;2023-12-20T12:42:45;7.90;99.90
15083;DHT22;7640;53.116;6.878;2023-12-20T12:45:18;7.90;99.90
15083;DHT22;7640;53.116;6.878;2023-12-20T12:47:54;7.90;99.90
15083;DHT22;7640;53.116;6.878;2023-12-20T12:50:24;7.90;99.90
15083;DHT22;7640;53.116;6.878;2023-12-20T12:52:58;8.00;99.90
15083;DHT22;7640;53.116;6.878;2023-12-20T12:55:29;8.00;99.90
15083;DHT22;7640;53.116;6.878;2023-12-20T12:57:59;8.10;99.90
15083;DHT22;7640;53.116;6.878;2023-12-20T13:00:34;8.10;99.90
15083;DHT22;7640;53.116;6.878;2023-12-20T13:03:05;8.20;99.90
15083;DHT22;7640;53.116;6.878;2023-12-20T13:05:34;8.20;99.90
15083;DHT22;7640;53.116;6.878;2023-12-20T13:08:09;8.30;99.90
15083;DHT22;7640;53.116;6.878;2023-12-20T13:10:39;8.30;99.90
15083;DHT22;7640;53.116;6.878;2023-12-20T13:13:21;8.40;99.90
15083;DHT22;7640;53.116;6.878;2023-12-20T13:15:56;8.30;99.90
15083;DHT22;7640;53.116;6.878;2023-12-20T13:18:29;8.30;99.90
15083;DHT22;7640;53.116;6.878;2023-12-20T13:21:10;8.20;99.90
15083;DHT22;7640;53.116;6.878;2023-12-20T13:23:44;8.20;99.90
15083;DHT22;7640;53.116;6.878;2023-12-20T13:26:14;8.20;99.90
15083;DHT22;7640;53.116;6.878;2023-12-20T13:28:44;8.20;99.90
15083;DHT22;7640;53.116;6.878;2023-12-20T13:31:13;8.20;99.90
15083;DHT22;7640;53.116;6.878;2023-12-20T13:33:51;8.10;99.90
15083;DHT22;7640;53.116;6.878;2023-12-20T13:36:22;8.10;99.90
15083;DHT22;7640;53.116;6.878;2023-12-20T13:38:55;8.10;99.90
15083;DHT22;7640;53.116;6.878;2023-12-20T13:41:24;8.10;99.90
15083;DHT22;7640;53.116;6.878;2023-12-20T13:43:54;8.00;99.90
15083;DHT22;7640;53.116;6.878;2023-12-20T13:46:25;8.00;99.90
15083;DHT22;7640;53.116;6.878;2023-12-20T13:48:56;7.90;99.90
15083;DHT22;7640;53.116;6.878;2023-12-20T13:51:30;7.90;99.90
15083;DHT22;7640;53.116;6.878;2023-12-20T13:54:01;7.80;99.90
15083;DHT22;7640;53.116;6.878;2023-12-20T13:56:31;7.70;99.90
15083;DHT22;7640;53.116;6.878;2023-12-20T13:59:21;7.70;99.90
15083;DHT22;7640;53.116;6.878;2023-12-20T14:01:53;7.60;99.90
15083;DHT22;7640;53.116;6.878;2023-12-20T14:04:25;7.60;99.90
15083;DHT22;7640;53.116;6.878;2023-12-20T14:07:09;7.50;99.90
15083;DHT22;7640;53.116;6.878;2023-12-20T14:09:44;7.50;99.90
15083;DHT22;7640;53.116;6.878;2023-12-20T14:12:16;7.50;99.90
15083;DHT22;7640;53.116;6.878;2023-12-20T14:14:51;7.40;99.90
15083;DHT22;7640;53.116;6.878;2023-12-20T14:17:27;7.40;99.90
15083;DHT22;7640;53.116;6.878;2023-12-20T14:20:11;7.40;99.90
15083;DHT22;7640;53.116;6.878;2023-12-20T14:22:50;7.30;99.90
15083;DHT22;7640;53.116;6.878;2023-12-20T14:25:22;7.30;99.90
15083;DHT22;7640;53.116;6.878;2023-12-20T14:28:00;7.30;99.90
15083;DHT22;7640;53.116;6.878;2023-12-20T14:30:30;7.30;99.90
15083;DHT22;7640;53.116;6.878;2023-12-20T14:33:01;7.20;99.90
15083;DHT22;7640;53.116;6.878;2023-12-20T14:35:32;7.20;99.90
15083;DHT22;7640;53.116;6.878;2023-12-20T14:38:02;7.20;99.90
15083;DHT22;7640;53.116;6.878;2023-12-20T14:40:36;7.20;99.90
15083;DHT22;7640;53.116;6.878;2023-12-20T14:43:08;7.20;99.90
15083;DHT22;7640;53.116;6.878;2023-12-20T14:45:50;7.20;99.90
15083;DHT22;7640;53.116;6.878;2023-12-20T14:48:21;7.10;99.90
15083;DHT22;7640;53.116;6.878;2023-12-20T14:50:55;7.10;99.90
15083;DHT22;7640;53.116;6.878;2023-12-20T14:53:29;7.10;99.90
15083;DHT22;7640;53.116;6.878;2023-12-20T14:56:09;7.10;99.90
15083;DHT22;7640;53.116;6.878;2023-12-20T14:58:46;7.10;99.90
15083;DHT22;7640;53.116;6.878;2023-12-20T15:01:15;7.10;99.90
15083;DHT22;7640;53.116;6.878;2023-12-20T15:03:55;7.10;99.90
15083;DHT22;7640;53.116;6.878;2023-12-20T15:06:32;7.10;99.90
15083;DHT22;7640;53.116;6.878;2023-12-20T15:09:02;7.00;99.90
15083;DHT22;7640;53.116;6.878;2023-12-20T15:11:36;7.00;99.90
15083;DHT22;7640;53.116;6.878;2023-12-20T15:14:06;7.00;99.90
15083;DHT22;7640;53.116;6.878;2023-12-20T15:16:36;7.00;99.90
15083;DHT22;7640;53.116;6.878;2023-12-20T15:19:10;7.00;99.90
15083;DHT22;7640;53.116;6.878;2023-12-20T15:21:45;7.00;99.90
15083;DHT22;7640;53.116;6.878;2023-12-20T15:24:16;7.00;99.90
15083;DHT22;7640;53.116;6.878;2023-12-20T15:26:56;7.00;99.90
15083;DHT22;7640;53.116;6.878;2023-12-20T15:29:27;7.00;99.90
15083;DHT22;7640;53.116;6.878;2023-12-20T15:32:01;7.00;99.90
15083;DHT22;7640;53.116;6.878;2023-12-20T15:34:32;7.00;99.90
15083;DHT22;7640;53.116;6.878;2023-12-20T15:37:02;7.00;99.90
15083;DHT22;7640;53.116;6.878;2023-12-20T15:39:32;7.00;99.90
15083;DHT22;7640;53.116;6.878;2023-12-20T15:42:04;7.00;99.90
15083;DHT22;7640;53.116;6.878;2023-12-20T15:44:33;7.00;99.90
15083;DHT22;7640;53.116;6.878;2023-12-20T15:47:03;7.00;99.90
15083;DHT22;7640;53.116;6.878;2023-12-20T15:49:34;7.00;99.90
15083;DHT22;7640;53.116;6.878;2023-12-20T15:52:06;7.00;99.90
15083;DHT22;7640;53.116;6.878;2023-12-20T15:54:36;7.00;99.90
15083;DHT22;7640;53.116;6.878;2023-12-20T15:57:08;7.00;99.90
15083;DHT22;7640;53.116;6.878;2023-12-20T15:59:39;7.00;99.90
15083;DHT22;7640;53.116;6.878;2023-12-20T16:02:13;7.00;99.90
15083;DHT22;7640;53.116;6.878;2023-12-20T16:04:48;7.00;99.90
15083;DHT22;7640;53.116;6.878;2023-12-20T16:07:22;7.00;99.90
15083;DHT22;7640;53.116;6.878;2023-12-20T16:09:52;7.00;99.90
15083;DHT22;7640;53.116;6.878;2023-12-20T16:12:26;7.00;99.90
15083;DHT22;7640;53.116;6.878;2023-12-20T16:14:56;7.10;99.90
15083;DHT22;7640;53.116;6.878;2023-12-20T16:17:26;7.10;99.90
15083;DHT22;7640;53.116;6.878;2023-12-20T16:19:57;7.10;99.90
15083;DHT22;7640;53.116;6.878;2023-12-20T16:22:28;7.20;99.90
15083;DHT22;7640;53.116;6.878;2023-12-20T16:25:19;7.20;99.90
15083;DHT22;7640;53.116;6.878;2023-12-20T16:27:51;7.20;99.90
15083;DHT22;7640;53.116;6.878;2023-12-20T16:30:22;7.20;99.90
15083;DHT22;7640;53.116;6.878;2023-12-20T16:32:58;7.20;99.90
15083;DHT22;7640;53.116;6.878;2023-12-20T16:35:36;7.20;99.90
15083;DHT22;7640;53.116;6.878;2023-12-20T16:38:10;7.20;99.90
15083;DHT22;7640;53.116;6.878;2023-12-20T16:40:41;7.30;99.90